createdAt,value
2023-02-05T00:00:19.760Z,82.49
2023-02-05T00:03:07.723Z,82.53
2023-02-05T00:05:35.865Z,82.38
2023-02-05T00:08:03.970Z,82.05
2023-02-05T00:10:31.931Z,82.45
2023-02-05T00:12:59.773Z,82.51
2023-02-05T00:15:27.999Z,82.42
2023-02-05T00:17:55.945Z,82.70
2023-02-05T00:20:23.892Z,82.55
2023-02-05T00:22:51.774Z,83.05
2023-02-05T00:25:19.687Z,83.25
2023-02-05T00:27:47.698Z,83.52
2023-02-05T00:30:15.623Z,83.71
2023-02-05T00:32:43.630Z,83.93
2023-02-05T00:35:11.714Z,83.91
2023-02-05T00:37:39.765Z,83.96
2023-02-05T00:40:08.014Z,83.99
2023-02-05T00:42:36.175Z,83.86
2023-02-05T00:45:04.377Z,83.79
2023-02-05T00:47:32.312Z,83.91
2023-02-05T00:50:00.242Z,83.70
2023-02-05T00:52:28.135Z,83.69
2023-02-05T00:54:56.088Z,83.68
2023-02-05T00:57:24.815Z,83.60
2023-02-05T00:59:53.873Z,83.61
2023-02-05T01:02:24.073Z,83.61
2023-02-05T01:04:52.809Z,83.28
2023-02-05T01:07:20.912Z,83.49
2023-02-05T01:09:49.645Z,83.28
2023-02-05T01:12:17.618Z,83.05
2023-02-05T01:14:45.863Z,83.08
2023-02-05T01:17:13.942Z,83.31
2023-02-05T01:19:41.991Z,83.13
2023-02-05T01:22:11.579Z,83.39
2023-02-05T01:24:39.884Z,83.19
2023-02-05T01:27:07.869Z,83.26
2023-02-05T01:29:35.885Z,83.06
2023-02-05T01:32:04.283Z,82.87
2023-02-05T01:34:32.296Z,82.95
2023-02-05T01:37:00.262Z,83.01
2023-02-05T01:39:28.203Z,82.93
2023-02-05T01:41:56.545Z,82.95
2023-02-05T01:44:25.286Z,82.95
2023-02-05T01:46:55.293Z,82.64
2023-02-05T01:49:43.821Z,82.71
2023-02-05T01:52:17.001Z,82.63
2023-02-05T01:54:48.841Z,82.70
2023-02-05T01:57:24.813Z,82.57
2023-02-05T01:59:53.360Z,82.33
2023-02-05T02:02:21.511Z,82.52
2023-02-05T02:04:55.830Z,82.61
2023-02-05T02:07:25.300Z,82.49
2023-02-05T02:09:55.817Z,82.46
2023-02-05T02:12:28.903Z,82.43
2023-02-05T02:15:01.154Z,82.38
2023-02-05T02:17:34.560Z,82.12
2023-02-05T02:20:06.955Z,82.37
2023-02-05T02:22:48.200Z,82.12
2023-02-05T02:25:38.828Z,82.22
2023-02-05T02:28:29.047Z,82.34
2023-02-05T02:31:12.605Z,82.52
2023-02-05T02:34:00.517Z,82.25
2023-02-05T02:36:47.721Z,82.21
2023-02-05T02:39:44.633Z,82.05
2023-02-05T02:42:18.831Z,82.31
2023-02-05T02:44:54.010Z,82.17
2023-02-05T02:47:25.840Z,82.00
2023-02-05T02:50:02.234Z,82.21
2023-02-05T02:52:36.431Z,82.23
2023-02-05T02:55:09.600Z,82.12
2023-02-05T02:57:44.851Z,81.91
2023-02-05T03:00:23.253Z,81.74
2023-02-05T03:03:01.350Z,81.86
2023-02-05T03:05:33.736Z,81.41
2023-02-05T03:08:20.876Z,81.51
2023-02-05T03:11:04.892Z,81.13
2023-02-05T03:13:36.862Z,81.19
2023-02-05T03:16:08.790Z,81.41
2023-02-05T03:18:39.886Z,81.43
2023-02-05T03:21:31.913Z,81.65
2023-02-05T03:24:03.908Z,81.51
2023-02-05T03:26:36.904Z,81.22
2023-02-05T03:29:16.319Z,81.32
2023-02-05T03:32:42.908Z,81.19
2023-02-05T03:36:00.902Z,81.03
2023-02-05T03:39:36.907Z,80.87
2023-02-05T03:42:34.937Z,81.30
2023-02-05T03:45:32.089Z,80.89
2023-02-05T03:48:39.681Z,81.14
2023-02-05T03:51:37.415Z,81.15
2023-02-05T03:54:23.946Z,81.05
2023-02-05T04:04:27.511Z,81.06
2023-02-05T04:06:57.218Z,80.80
2023-02-05T04:09:25.403Z,80.91
2023-02-05T04:11:54.074Z,80.94
2023-02-05T04:14:22.080Z,80.88
2023-02-05T04:16:50.220Z,80.88
2023-02-05T04:19:19.414Z,80.83
2023-02-05T04:21:47.895Z,80.99
2023-02-05T04:24:16.252Z,80.78
2023-02-05T04:26:45.373Z,80.68
2023-02-05T04:29:13.748Z,81.09
2023-02-05T04:31:45.255Z,80.97
2023-02-05T04:34:13.690Z,81.07
2023-02-05T04:36:42.087Z,80.71
2023-02-05T04:39:10.332Z,81.08
2023-02-05T04:41:38.406Z,81.24
2023-02-05T04:44:07.016Z,81.08
2023-02-05T04:46:35.261Z,80.87
2023-02-05T04:49:03.488Z,80.68
2023-02-05T04:51:31.519Z,80.57
2023-02-05T04:53:59.582Z,80.51
2023-02-05T04:56:28.264Z,80.58
2023-02-05T04:58:56.459Z,80.56
2023-02-05T05:01:24.507Z,80.67
2023-02-05T05:03:52.686Z,80.72
2023-02-05T05:06:20.960Z,80.92
2023-02-05T05:08:49.028Z,80.80
2023-02-05T05:11:19.695Z,80.79
2023-02-05T05:13:49.591Z,80.66
2023-02-05T05:16:18.418Z,80.61
2023-02-05T05:18:46.497Z,80.92
2023-02-05T05:21:14.617Z,80.84
2023-02-05T05:23:42.947Z,80.96
2023-02-05T05:26:12.487Z,80.60
2023-02-05T05:28:40.766Z,80.81
2023-02-05T05:31:17.334Z,80.60
2023-02-05T05:33:46.045Z,80.86
2023-02-05T05:36:14.626Z,80.92
2023-02-05T05:38:43.842Z,80.96
2023-02-05T05:41:41.091Z,80.89
2023-02-05T05:44:10.364Z,80.98
2023-02-05T05:46:38.528Z,80.98
2023-02-05T05:49:06.706Z,80.77
2023-02-05T05:51:34.804Z,80.69
2023-02-05T05:54:02.954Z,80.76
2023-02-05T05:56:31.023Z,80.93
2023-02-05T05:58:59.074Z,81.18
2023-02-05T06:01:27.773Z,81.05
2023-02-05T06:03:56.059Z,81.08
2023-02-05T06:06:24.223Z,81.33
2023-02-05T06:08:52.288Z,81.10
2023-02-05T06:11:20.359Z,81.18
2023-02-05T06:13:48.431Z,81.06
2023-02-05T06:16:16.562Z,81.10
2023-02-05T06:18:44.790Z,81.06
2023-02-05T06:21:12.877Z,81.16
2023-02-05T06:23:40.927Z,81.12
2023-02-05T06:26:09.031Z,81.34
2023-02-05T06:28:37.164Z,80.95
2023-02-05T06:31:05.714Z,81.05
2023-02-05T06:33:33.922Z,81.21
2023-02-05T06:36:02.098Z,81.07
2023-02-05T06:38:30.374Z,80.99
2023-02-05T06:40:58.464Z,80.88
2023-02-05T06:43:26.653Z,81.19
2023-02-05T06:45:55.925Z,81.17
2023-02-05T06:48:23.984Z,81.11
2023-02-05T06:50:52.064Z,80.94
2023-02-05T06:53:20.242Z,81.13
2023-02-05T06:55:48.410Z,81.24
2023-02-05T06:58:16.397Z,81.09
2023-02-05T07:00:44.312Z,81.12
2023-02-05T07:03:12.310Z,81.24
2023-02-05T07:05:40.836Z,81.13
2023-02-05T07:08:09.177Z,81.16
2023-02-05T07:10:37.347Z,81.22
2023-02-05T07:13:06.077Z,80.74
2023-02-05T07:15:37.684Z,81.06
2023-02-05T07:18:06.783Z,81.05
2023-02-05T07:20:34.977Z,80.89
2023-02-05T07:23:03.130Z,80.97
2023-02-05T07:25:36.646Z,80.99
2023-02-05T07:28:06.902Z,80.76
2023-02-05T07:30:36.377Z,80.83
2023-02-05T07:33:04.942Z,81.19
2023-02-05T07:35:37.345Z,81.15
2023-02-05T07:38:06.622Z,80.86
2023-02-05T07:40:34.756Z,81.00
2023-02-05T07:43:02.798Z,81.04
2023-02-05T07:45:30.917Z,81.01
2023-02-05T07:47:59.014Z,80.64
2023-02-05T07:50:26.960Z,80.86
2023-02-05T07:52:55.193Z,81.03
2023-02-05T07:55:23.510Z,80.95
2023-02-05T07:57:51.482Z,80.59
2023-02-05T08:00:20.021Z,80.78
2023-02-05T08:02:48.152Z,80.69
2023-02-05T08:05:16.243Z,80.85
2023-02-05T08:07:44.221Z,80.67
2023-02-05T08:10:14.785Z,80.64
2023-02-05T08:12:42.715Z,80.12
2023-02-05T08:15:11.113Z,80.32
2023-02-05T08:17:39.036Z,79.99
2023-02-05T08:20:07.903Z,79.62
2023-02-05T08:22:38.553Z,79.38
2023-02-05T08:25:09.229Z,79.14
2023-02-05T08:27:38.060Z,79.44
2023-02-05T08:30:09.122Z,79.80
2023-02-05T08:32:37.185Z,79.66
2023-02-05T08:35:06.060Z,79.29
2023-02-05T08:37:34.804Z,78.79
2023-02-05T08:40:02.916Z,78.41
2023-02-05T08:42:30.890Z,78.81
2023-02-05T08:45:00.118Z,78.62
2023-02-05T08:47:28.293Z,78.69
2023-02-05T08:49:56.430Z,78.79
2023-02-05T08:52:24.401Z,78.54
2023-02-05T08:54:52.619Z,78.79
2023-02-05T08:57:20.543Z,78.67
2023-02-05T08:59:48.717Z,78.52
2023-02-05T09:02:16.831Z,78.48
2023-02-05T09:04:45.091Z,78.55
2023-02-05T09:07:13.133Z,77.99
2023-02-05T09:09:41.409Z,77.58
2023-02-05T09:12:10.918Z,77.21
2023-02-05T09:14:39.595Z,77.03
2023-02-05T09:17:09.567Z,77.00
2023-02-05T09:19:39.736Z,76.99
2023-02-05T09:22:09.073Z,77.03
2023-02-05T09:24:37.984Z,76.84
2023-02-05T09:27:06.749Z,76.70
2023-02-05T09:29:34.988Z,76.75
2023-02-05T09:32:03.062Z,77.11
2023-02-05T09:34:32.482Z,76.98
2023-02-05T09:37:00.492Z,77.05
2023-02-05T09:40:12.296Z,76.94
2023-02-05T09:42:21.409Z,76.33
2023-02-05T09:45:02.026Z,75.23
2023-02-05T09:47:36.853Z,74.96
2023-02-05T09:50:26.155Z,74.77
2023-02-05T09:52:59.941Z,73.82
2023-02-05T09:55:31.446Z,73.56
2023-02-05T09:58:04.874Z,73.50
2023-02-05T10:01:14.983Z,73.40
2023-02-05T10:03:56.305Z,73.68
2023-02-05T10:06:39.843Z,73.37
2023-02-05T10:09:24.684Z,73.01
2023-02-05T10:11:57.107Z,73.10
2023-02-05T10:14:31.515Z,73.13
2023-02-05T10:17:21.991Z,72.99
2023-02-05T10:20:23.396Z,72.94
2023-02-05T10:23:29.354Z,73.17
2023-02-05T10:26:14.165Z,72.50
2023-02-05T10:29:16.484Z,72.13
2023-02-05T10:32:03.969Z,72.28
2023-02-05T10:34:42.018Z,71.95
2023-02-05T10:37:18.718Z,71.35
2023-02-05T10:39:49.630Z,71.74
2023-02-05T10:42:17.552Z,70.93
2023-02-05T10:44:49.311Z,70.84
2023-02-05T10:47:25.404Z,70.75
2023-02-05T10:50:46.190Z,70.96
2023-02-05T10:53:18.138Z,69.65
2023-02-05T10:55:46.264Z,69.71
2023-02-05T10:58:38.105Z,69.77
2023-02-05T11:01:20.203Z,69.35
2023-02-05T11:03:52.253Z,69.38
2023-02-05T11:06:22.149Z,70.27
2023-02-05T11:08:50.394Z,69.59
2023-02-05T11:11:25.142Z,69.41
2023-02-05T11:14:21.056Z,68.48
2023-02-05T11:16:49.114Z,68.47
2023-02-05T11:19:27.097Z,68.88
2023-02-05T11:21:57.749Z,68.84
2023-02-05T11:24:25.819Z,69.06
2023-02-05T11:27:26.510Z,68.55
2023-02-05T11:29:57.063Z,68.36
2023-02-05T11:32:37.542Z,68.72
2023-02-05T11:35:25.894Z,67.97
2023-02-05T11:38:06.719Z,68.38
2023-02-05T11:40:36.404Z,68.43
2023-02-05T11:43:16.233Z,68.35
2023-02-05T11:45:51.080Z,68.20
2023-02-05T11:48:37.773Z,68.50
2023-02-05T11:51:10.136Z,68.47
2023-02-05T11:53:44.369Z,68.42
2023-02-05T11:56:21.476Z,68.10
2023-02-05T11:59:01.814Z,68.04
2023-02-05T12:01:34.027Z,68.11
2023-02-05T12:04:11.301Z,67.84
2023-02-05T12:06:53.521Z,67.77
2023-02-05T12:09:24.242Z,68.03
2023-02-05T12:12:38.564Z,67.89
2023-02-05T12:23:00.515Z,68.22
2023-02-05T12:25:42.582Z,67.93
2023-02-05T12:28:34.946Z,67.18
2023-02-05T12:31:17.210Z,67.30
2023-02-05T12:34:00.346Z,67.95
2023-02-05T12:36:59.210Z,68.24
2023-02-05T12:39:27.244Z,68.42
2023-02-05T12:42:13.335Z,68.83
2023-02-05T12:44:51.848Z,69.11
2023-02-05T12:47:41.939Z,69.11
2023-02-05T12:50:32.297Z,69.77
2023-02-05T12:53:18.624Z,69.66
2023-02-05T12:56:06.977Z,69.83
2023-02-05T12:58:43.553Z,69.62
2023-02-05T13:01:18.181Z,69.77
2023-02-05T13:03:51.638Z,69.88
2023-02-05T13:06:42.438Z,69.91
2023-02-05T13:09:20.742Z,69.83
2023-02-05T13:12:01.024Z,69.81
2023-02-05T13:14:40.479Z,69.85
2023-02-05T13:17:17.406Z,69.62
2023-02-05T13:19:51.832Z,69.11
2023-02-05T13:22:44.320Z,69.30
2023-02-05T13:25:38.226Z,69.46
2023-02-05T13:28:38.626Z,69.22
2023-02-05T13:31:17.406Z,69.59
2023-02-05T13:33:45.755Z,69.36
2023-02-05T13:36:40.832Z,69.79
2023-02-05T13:39:34.306Z,69.99
2023-02-05T13:42:06.459Z,69.98
2023-02-05T13:44:55.937Z,69.87
2023-02-05T13:47:42.027Z,69.83
2023-02-05T13:50:28.364Z,69.58
2023-02-05T13:53:13.945Z,70.10
2023-02-05T13:56:10.650Z,69.77
2023-02-05T13:59:04.988Z,69.90
2023-02-05T14:01:42.757Z,69.73
2023-02-05T14:04:19.202Z,69.70
2023-02-05T14:07:18.002Z,69.74
2023-02-05T14:10:01.139Z,69.09
2023-02-05T14:12:35.637Z,69.56
2023-02-05T14:15:16.440Z,69.43
2023-02-05T14:17:44.398Z,69.43
2023-02-05T14:20:24.346Z,69.50
2023-02-05T14:23:03.665Z,69.77
2023-02-05T14:25:46.276Z,69.67
2023-02-05T14:28:17.866Z,69.73
2023-02-05T14:30:59.447Z,69.71
2023-02-05T14:33:35.658Z,69.56
2023-02-05T14:36:16.181Z,69.67
2023-02-05T14:38:59.502Z,69.41
2023-02-05T14:41:42.091Z,69.05
2023-02-05T14:44:13.057Z,69.33
2023-02-05T14:46:52.525Z,69.34
2023-02-05T14:49:28.530Z,69.53
2023-02-05T14:52:03.492Z,69.68
2023-02-05T14:54:42.463Z,69.61
2023-02-05T14:57:26.632Z,69.88
2023-02-05T15:00:00.022Z,69.57
2023-02-05T15:03:05.160Z,69.52
2023-02-05T15:05:37.054Z,69.51
2023-02-05T15:08:21.568Z,69.64
2023-02-05T15:11:03.375Z,69.64
2023-02-05T15:13:32.382Z,69.65
2023-02-05T15:16:12.464Z,69.97
2023-02-05T15:18:51.872Z,70.20
2023-02-05T15:21:19.819Z,69.97
2023-02-05T15:23:53.708Z,69.91
2023-02-05T15:26:39.414Z,70.15
2023-02-05T15:29:16.800Z,70.18
2023-02-05T15:32:36.378Z,70.10
2023-02-05T15:35:10.820Z,70.18
2023-02-05T15:37:45.359Z,69.90
2023-02-05T15:40:25.111Z,70.21
2023-02-05T15:42:59.486Z,70.41
2023-02-05T15:45:27.559Z,70.39
2023-02-05T15:47:59.931Z,70.39
2023-02-05T15:50:30.574Z,70.07
2023-02-05T15:52:59.757Z,70.17
2023-02-05T15:55:29.231Z,70.38
2023-02-05T15:58:04.743Z,70.11
2023-02-05T16:00:37.923Z,70.49
2023-02-05T16:03:06.951Z,70.10
2023-02-05T16:05:35.438Z,70.21
2023-02-05T16:08:05.690Z,69.97
2023-02-05T16:10:35.134Z,70.26
2023-02-05T16:13:06.184Z,70.38
2023-02-05T16:15:43.383Z,69.87
2023-02-05T16:18:19.102Z,70.01
2023-02-05T16:20:53.620Z,70.05
2023-02-05T16:23:44.672Z,70.16
2023-02-05T16:26:21.784Z,70.31
2023-02-05T16:28:58.277Z,70.06
2023-02-05T16:31:28.359Z,70.19
2023-02-05T16:34:04.245Z,69.95
2023-02-05T16:36:37.105Z,69.87
2023-02-05T16:39:16.848Z,69.89
2023-02-05T16:41:45.575Z,69.60
2023-02-05T16:44:30.219Z,69.66
2023-02-05T16:47:18.167Z,69.51
2023-02-05T16:49:48.479Z,69.57
2023-02-05T16:52:32.026Z,69.29
2023-02-05T16:55:29.038Z,69.50
2023-02-05T16:58:05.560Z,69.26
2023-02-05T17:00:34.492Z,69.49
2023-02-05T17:03:16.502Z,69.34
2023-02-05T17:05:44.981Z,69.55
2023-02-05T17:08:13.057Z,69.64
2023-02-05T17:10:55.359Z,69.61
2023-02-05T17:13:44.569Z,69.65
2023-02-05T17:16:32.770Z,69.70
2023-02-05T17:19:04.636Z,69.72
2023-02-05T17:21:34.960Z,69.51
2023-02-05T17:24:09.392Z,69.77
2023-02-05T17:26:41.062Z,69.58
2023-02-05T17:29:15.825Z,69.79
2023-02-05T17:31:44.258Z,69.30
2023-02-05T17:34:16.161Z,69.35
2023-02-05T17:36:45.112Z,69.42
2023-02-05T17:39:13.257Z,69.54
2023-02-05T17:42:00.482Z,69.72
2023-02-05T17:44:28.713Z,69.55
2023-02-05T17:46:59.162Z,69.60
2023-02-05T17:49:27.604Z,69.79
2023-02-05T17:51:55.951Z,69.70
2023-02-05T17:54:25.734Z,70.02
2023-02-05T17:56:56.937Z,70.08
2023-02-05T17:59:26.266Z,69.94
2023-02-05T18:01:54.530Z,69.80
2023-02-05T18:04:22.752Z,69.83
2023-02-05T18:06:51.025Z,69.88
2023-02-05T18:09:20.133Z,69.91
2023-02-05T18:11:48.291Z,69.78
2023-02-05T18:14:16.292Z,69.83
2023-02-05T18:16:44.921Z,70.03
2023-02-05T18:19:14.143Z,70.19
2023-02-05T18:21:42.431Z,70.02
2023-02-05T18:24:10.515Z,70.11
2023-02-05T18:26:38.583Z,70.31
2023-02-05T18:29:06.642Z,70.23
2023-02-05T18:31:35.435Z,70.19
2023-02-05T18:34:03.907Z,70.05
2023-02-05T18:36:31.976Z,70.31
2023-02-05T18:39:00.250Z,70.37
2023-02-05T18:41:28.728Z,70.43
2023-02-05T18:43:57.802Z,70.53
2023-02-05T18:46:25.928Z,70.66
2023-02-05T18:48:54.916Z,70.55
2023-02-05T18:51:23.672Z,70.78
2023-02-05T18:53:52.584Z,70.65
2023-02-05T18:56:26.698Z,70.90
2023-02-05T18:59:03.072Z,70.95
2023-02-05T19:01:32.157Z,70.94
2023-02-05T19:04:02.369Z,70.93
2023-02-05T19:06:30.856Z,70.93
2023-02-05T19:09:00.646Z,71.10
2023-02-05T19:11:30.266Z,71.05
2023-02-05T19:14:00.613Z,71.09
2023-02-05T19:16:32.374Z,71.21
2023-02-05T19:19:00.990Z,71.27
2023-02-05T19:21:30.767Z,71.07
2023-02-05T19:24:05.668Z,70.87
2023-02-05T19:26:37.160Z,70.93
2023-02-05T19:29:08.474Z,71.01
2023-02-05T19:31:37.399Z,70.96
2023-02-05T19:34:06.450Z,70.93
2023-02-05T19:36:34.827Z,71.13
2023-02-05T19:39:06.340Z,71.29
2023-02-05T19:41:36.047Z,71.12
2023-02-05T19:44:07.538Z,71.40
2023-02-05T19:46:42.105Z,71.63
2023-02-05T19:49:16.170Z,71.81
2023-02-05T19:51:46.602Z,72.06
2023-02-05T19:54:15.488Z,72.24
2023-02-05T19:56:44.544Z,72.50
2023-02-05T19:59:13.292Z,72.57
2023-02-05T20:01:44.826Z,72.99
2023-02-05T20:04:18.528Z,72.74
2023-02-05T20:06:48.117Z,73.38
2023-02-05T20:09:17.245Z,73.02
2023-02-05T20:11:47.970Z,73.28
2023-02-05T20:14:17.580Z,73.49
2023-02-05T20:16:45.971Z,73.30
2023-02-05T20:19:16.791Z,73.45
2023-02-05T20:21:46.701Z,73.54
2023-02-05T20:24:16.640Z,73.55
2023-02-05T20:26:48.551Z,73.74
2023-02-05T20:29:35.486Z,73.87
2023-02-05T20:32:04.272Z,73.97
2023-02-05T20:34:35.875Z,73.89
2023-02-05T20:37:07.000Z,74.18
2023-02-05T20:39:39.720Z,74.42
2023-02-05T20:42:10.752Z,74.34
2023-02-05T20:44:39.425Z,74.44
2023-02-05T20:47:11.282Z,75.00
2023-02-05T20:49:41.739Z,75.02
2023-02-05T20:52:10.820Z,75.02
2023-02-05T20:54:39.238Z,75.13
2023-02-05T20:57:08.048Z,75.01
2023-02-05T20:59:37.331Z,75.29
2023-02-05T21:02:05.746Z,75.07
2023-02-05T21:04:34.352Z,75.26
2023-02-05T21:07:02.452Z,75.55
2023-02-05T21:09:30.527Z,75.47
2023-02-05T21:11:58.595Z,75.45
2023-02-05T21:14:26.667Z,75.67
2023-02-05T21:16:54.662Z,75.85
2023-02-05T21:19:24.175Z,76.16
2023-02-05T21:21:53.132Z,76.05
2023-02-05T21:24:21.713Z,75.93
2023-02-05T21:26:50.142Z,76.10
2023-02-05T21:29:20.856Z,75.91
2023-02-05T21:31:53.181Z,76.21
2023-02-05T21:34:27.088Z,75.85
2023-02-05T21:36:56.660Z,76.26
2023-02-05T21:39:26.221Z,76.05
2023-02-05T21:41:55.052Z,76.22
2023-02-05T21:44:24.402Z,76.17
2023-02-05T21:46:54.858Z,76.25
2023-02-05T21:49:23.310Z,76.38
2023-02-05T21:51:53.494Z,76.52
2023-02-05T21:54:25.350Z,76.62
2023-02-05T21:56:54.514Z,76.57
2023-02-05T21:59:23.420Z,76.56
2023-02-05T22:01:51.666Z,76.84
2023-02-05T22:04:20.100Z,76.74
2023-02-05T22:06:48.224Z,77.16
2023-02-05T22:09:17.018Z,76.83
2023-02-05T22:11:45.685Z,76.82
2023-02-05T22:14:13.767Z,76.74
2023-02-05T22:16:42.706Z,76.63
2023-02-05T22:19:11.232Z,76.87
2023-02-05T22:21:42.398Z,77.00
2023-02-05T22:24:15.012Z,76.96
2023-02-05T22:26:44.669Z,77.05
2023-02-05T22:29:15.407Z,77.18
2023-02-05T22:31:45.515Z,77.13
2023-02-05T22:34:13.795Z,77.33
2023-02-05T22:36:42.121Z,77.45
2023-02-05T22:39:10.347Z,77.62
2023-02-05T22:41:41.092Z,77.80
2023-02-05T22:44:11.490Z,77.75
2023-02-05T22:46:42.722Z,77.87
2023-02-05T22:49:13.320Z,77.92
2023-02-05T22:51:42.057Z,78.22
2023-02-05T22:54:12.307Z,78.26
2023-02-05T22:56:42.019Z,78.44
2023-02-05T22:59:10.101Z,78.26
2023-02-05T23:01:39.181Z,78.47
2023-02-05T23:04:09.373Z,78.66
2023-02-05T23:06:40.739Z,78.77
2023-02-05T23:09:13.808Z,78.46
2023-02-05T23:11:42.635Z,78.48
2023-02-05T23:14:12.263Z,78.39
2023-02-05T23:16:43.559Z,78.34
2023-02-05T23:19:16.042Z,78.08
2023-02-05T23:21:44.711Z,78.15
2023-02-05T23:24:13.433Z,78.12
2023-02-05T23:26:45.602Z,78.01
2023-02-05T23:29:15.651Z,78.25
2023-02-05T23:31:44.071Z,78.45
2023-02-05T23:34:12.579Z,78.28
2023-02-05T23:36:41.255Z,78.32
2023-02-05T23:39:09.613Z,78.51
2023-02-05T23:41:37.887Z,78.51
2023-02-05T23:44:13.740Z,78.46
2023-02-05T23:46:43.462Z,78.74
2023-02-05T23:49:12.443Z,79.12
2023-02-05T23:51:40.965Z,78.79
2023-02-05T23:54:11.290Z,78.84
2023-02-05T23:56:40.046Z,79.17
2023-02-05T23:59:09.884Z,79.21
